sensor_id;sensor_type;location;lat;lon;timestamp;P1;durP1;ratioP1;P2;durP2;ratioP2
11893;SDS011;6006;49.696;8.662;2023-04-29T00:00:43;4.23;;;3.93;;
11893;SDS011;6006;49.696;8.662;2023-04-29T00:03:10;4.63;;;4.20;;
11893;SDS011;6006;49.696;8.662;2023-04-29T00:05:37;12.60;;;4.63;;
11893;SDS011;6006;49.696;8.662;2023-04-29T00:08:04;8.73;;;4.73;;
11893;SDS011;6006;49.696;8.662;2023-04-29T00:10:31;10.57;;;4.70;;
11893;SDS011;6006;49.696;8.662;2023-04-29T00:12:59;8.37;;;4.43;;
11893;SDS011;6006;49.696;8.662;2023-04-29T00:15:26;6.30;;;4.50;;
11893;SDS011;6006;49.696;8.662;2023-04-29T00:17:53;6.30;;;4.03;;
11893;SDS011;6006;49.696;8.662;2023-04-29T00:20:20;5.93;;;4.37;;
11893;SDS011;6006;49.696;8.662;2023-04-29T00:22:47;6.73;;;4.20;;
11893;SDS011;6006;49.696;8.662;2023-04-29T00:25:13;3.80;;;3.50;;
11893;SDS011;6006;49.696;8.662;2023-04-29T00:27:41;4.47;;;4.07;;
11893;SDS011;6006;49.696;8.662;2023-04-29T00:30:09;9.10;;;4.27;;
11893;SDS011;6006;49.696;8.662;2023-04-29T00:32:36;8.27;;;4.00;;
11893;SDS011;6006;49.696;8.662;2023-04-29T00:35:04;3.80;;;3.50;;
11893;SDS011;6006;49.696;8.662;2023-04-29T00:37:31;4.37;;;3.60;;
11893;SDS011;6006;49.696;8.662;2023-04-29T00:39:58;3.83;;;3.27;;
11893;SDS011;6006;49.696;8.662;2023-04-29T00:42:25;4.30;;;3.90;;
11893;SDS011;6006;49.696;8.662;2023-04-29T00:44:53;6.20;;;3.87;;
11893;SDS011;6006;49.696;8.662;2023-04-29T00:47:21;4.23;;;3.50;;
11893;SDS011;6006;49.696;8.662;2023-04-29T00:49:48;4.00;;;3.70;;
11893;SDS011;6006;49.696;8.662;2023-04-29T00:52:15;4.27;;;3.87;;
11893;SDS011;6006;49.696;8.662;2023-04-29T00:54:44;3.70;;;3.40;;
11893;SDS011;6006;49.696;8.662;2023-04-29T00:57:10;4.13;;;3.63;;
11893;SDS011;6006;49.696;8.662;2023-04-29T00:59:37;4.60;;;4.20;;
11893;SDS011;6006;49.696;8.662;2023-04-29T01:02:05;4.27;;;3.87;;
11893;SDS011;6006;49.696;8.662;2023-04-29T01:04:33;32.03;;;5.60;;
11893;SDS011;6006;49.696;8.662;2023-04-29T01:07:00;3.93;;;3.63;;
11893;SDS011;6006;49.696;8.662;2023-04-29T01:09:40;4.87;;;4.23;;
11893;SDS011;6006;49.696;8.662;2023-04-29T01:12:28;5.87;;;4.80;;
11893;SDS011;6006;49.696;8.662;2023-04-29T01:15:02;6.57;;;4.10;;
11893;SDS011;6006;49.696;8.662;2023-04-29T01:17:34;5.03;;;4.63;;
11893;SDS011;6006;49.696;8.662;2023-04-29T01:20:04;6.30;;;4.10;;
11893;SDS011;6006;49.696;8.662;2023-04-29T01:22:34;5.07;;;3.50;;
11893;SDS011;6006;49.696;8.662;2023-04-29T01:25:02;7.87;;;4.20;;
11893;SDS011;6006;49.696;8.662;2023-04-29T01:27:30;6.43;;;4.83;;
11893;SDS011;6006;49.696;8.662;2023-04-29T01:30:01;5.40;;;4.90;;
11893;SDS011;6006;49.696;8.662;2023-04-29T01:32:39;5.40;;;4.83;;
11893;SDS011;6006;49.696;8.662;2023-04-29T01:35:17;5.77;;;5.00;;
11893;SDS011;6006;49.696;8.662;2023-04-29T01:37:55;4.63;;;4.20;;
11893;SDS011;6006;49.696;8.662;2023-04-29T01:40:31;5.20;;;4.70;;
11893;SDS011;6006;49.696;8.662;2023-04-29T01:43:03;6.97;;;4.77;;
11893;SDS011;6006;49.696;8.662;2023-04-29T01:45:33;6.80;;;5.13;;
11893;SDS011;6006;49.696;8.662;2023-04-29T01:48:05;5.77;;;4.50;;
11893;SDS011;6006;49.696;8.662;2023-04-29T01:50:32;5.43;;;4.93;;
11893;SDS011;6006;49.696;8.662;2023-04-29T01:52:59;6.00;;;4.23;;
11893;SDS011;6006;49.696;8.662;2023-04-29T01:55:26;4.73;;;4.10;;
11893;SDS011;6006;49.696;8.662;2023-04-29T01:57:54;4.20;;;3.80;;
11893;SDS011;6006;49.696;8.662;2023-04-29T02:00:21;4.17;;;3.87;;
11893;SDS011;6006;49.696;8.662;2023-04-29T02:02:48;3.87;;;3.47;;
11893;SDS011;6006;49.696;8.662;2023-04-29T02:05:15;4.00;;;3.60;;
11893;SDS011;6006;49.696;8.662;2023-04-29T02:07:42;4.30;;;3.87;;
11893;SDS011;6006;49.696;8.662;2023-04-29T02:10:09;5.37;;;4.30;;
11893;SDS011;6006;49.696;8.662;2023-04-29T02:12:37;4.60;;;4.20;;
11893;SDS011;6006;49.696;8.662;2023-04-29T02:15:06;4.43;;;4.03;;
11893;SDS011;6006;49.696;8.662;2023-04-29T02:17:34;4.20;;;3.80;;
11893;SDS011;6006;49.696;8.662;2023-04-29T02:20:00;5.30;;;4.00;;
11893;SDS011;6006;49.696;8.662;2023-04-29T02:22:27;4.20;;;3.90;;
11893;SDS011;6006;49.696;8.662;2023-04-29T02:24:54;5.13;;;3.90;;
11893;SDS011;6006;49.696;8.662;2023-04-29T02:27:22;6.37;;;3.97;;
11893;SDS011;6006;49.696;8.662;2023-04-29T02:29:49;4.07;;;3.67;;
11893;SDS011;6006;49.696;8.662;2023-04-29T02:32:17;4.50;;;3.83;;
11893;SDS011;6006;49.696;8.662;2023-04-29T02:34:45;4.17;;;3.80;;
11893;SDS011;6006;49.696;8.662;2023-04-29T02:37:12;4.27;;;3.87;;
11893;SDS011;6006;49.696;8.662;2023-04-29T02:39:39;7.17;;;4.47;;
11893;SDS011;6006;49.696;8.662;2023-04-29T02:42:06;3.97;;;3.40;;
11893;SDS011;6006;49.696;8.662;2023-04-29T02:44:33;4.27;;;3.97;;
11893;SDS011;6006;49.696;8.662;2023-04-29T02:47:00;4.33;;;3.93;;
11893;SDS011;6006;49.696;8.662;2023-04-29T02:49:28;4.03;;;3.73;;
11893;SDS011;6006;49.696;8.662;2023-04-29T02:51:55;5.20;;;4.03;;
11893;SDS011;6006;49.696;8.662;2023-04-29T02:54:22;4.50;;;3.70;;
11893;SDS011;6006;49.696;8.662;2023-04-29T02:56:49;3.83;;;3.53;;
11893;SDS011;6006;49.696;8.662;2023-04-29T02:59:16;4.53;;;3.43;;
11893;SDS011;6006;49.696;8.662;2023-04-29T03:01:43;3.50;;;3.20;;
11893;SDS011;6006;49.696;8.662;2023-04-29T03:04:10;3.30;;;3.10;;
11893;SDS011;6006;49.696;8.662;2023-04-29T03:06:38;4.17;;;3.20;;
11893;SDS011;6006;49.696;8.662;2023-04-29T03:09:05;3.63;;;3.27;;
11893;SDS011;6006;49.696;8.662;2023-04-29T03:11:32;3.03;;;2.83;;
11893;SDS011;6006;49.696;8.662;2023-04-29T03:13:59;4.47;;;4.07;;
11893;SDS011;6006;49.696;8.662;2023-04-29T03:16:26;4.80;;;4.20;;
11893;SDS011;6006;49.696;8.662;2023-04-29T03:18:54;4.30;;;3.87;;
11893;SDS011;6006;49.696;8.662;2023-04-29T03:21:22;4.93;;;3.80;;
11893;SDS011;6006;49.696;8.662;2023-04-29T03:23:50;4.70;;;4.30;;
11893;SDS011;6006;49.696;8.662;2023-04-29T03:26:17;6.97;;;4.07;;
11893;SDS011;6006;49.696;8.662;2023-04-29T03:28:44;4.07;;;3.60;;
11893;SDS011;6006;49.696;8.662;2023-04-29T03:31:11;6.50;;;3.80;;
11893;SDS011;6006;49.696;8.662;2023-04-29T03:33:40;7.43;;;4.00;;
11893;SDS011;6006;49.696;8.662;2023-04-29T03:36:07;4.40;;;3.43;;
11893;SDS011;6006;49.696;8.662;2023-04-29T03:38:34;4.43;;;3.80;;
11893;SDS011;6006;49.696;8.662;2023-04-29T03:41:02;4.63;;;3.90;;
11893;SDS011;6006;49.696;8.662;2023-04-29T03:43:29;4.43;;;4.03;;
11893;SDS011;6006;49.696;8.662;2023-04-29T03:45:56;3.27;;;3.03;;
11893;SDS011;6006;49.696;8.662;2023-04-29T03:48:23;3.73;;;3.43;;
11893;SDS011;6006;49.696;8.662;2023-04-29T03:50:50;3.77;;;3.47;;
11893;SDS011;6006;49.696;8.662;2023-04-29T03:53:17;4.20;;;3.80;;
11893;SDS011;6006;49.696;8.662;2023-04-29T03:55:44;3.33;;;3.03;;
11893;SDS011;6006;49.696;8.662;2023-04-29T03:58:13;4.87;;;4.10;;
11893;SDS011;6006;49.696;8.662;2023-04-29T04:00:40;3.70;;;3.30;;
11893;SDS011;6006;49.696;8.662;2023-04-29T04:03:07;3.40;;;3.10;;
11893;SDS011;6006;49.696;8.662;2023-04-29T04:05:34;3.90;;;3.43;;
11893;SDS011;6006;49.696;8.662;2023-04-29T04:08:01;4.47;;;4.07;;
11893;SDS011;6006;49.696;8.662;2023-04-29T04:10:27;3.97;;;3.57;;
11893;SDS011;6006;49.696;8.662;2023-04-29T04:12:54;4.13;;;3.73;;
11893;SDS011;6006;49.696;8.662;2023-04-29T04:15:22;4.73;;;4.33;;
11893;SDS011;6006;49.696;8.662;2023-04-29T04:17:50;3.87;;;3.57;;
11893;SDS011;6006;49.696;8.662;2023-04-29T04:20:17;4.43;;;3.87;;
11893;SDS011;6006;49.696;8.662;2023-04-29T04:22:44;7.40;;;3.83;;
11893;SDS011;6006;49.696;8.662;2023-04-29T04:25:11;4.50;;;3.97;;
11893;SDS011;6006;49.696;8.662;2023-04-29T04:27:37;5.13;;;4.10;;
11893;SDS011;6006;49.696;8.662;2023-04-29T04:30:05;5.53;;;4.57;;
11893;SDS011;6006;49.696;8.662;2023-04-29T04:32:34;8.73;;;4.87;;
11893;SDS011;6006;49.696;8.662;2023-04-29T04:35:01;4.33;;;3.93;;
11893;SDS011;6006;49.696;8.662;2023-04-29T04:37:28;4.47;;;3.77;;
11893;SDS011;6006;49.696;8.662;2023-04-29T04:39:55;3.90;;;3.60;;
11893;SDS011;6006;49.696;8.662;2023-04-29T04:42:22;4.47;;;4.07;;
11893;SDS011;6006;49.696;8.662;2023-04-29T04:44:49;4.00;;;3.70;;
11893;SDS011;6006;49.696;8.662;2023-04-29T04:47:15;6.60;;;4.00;;
11893;SDS011;6006;49.696;8.662;2023-04-29T04:49:44;5.17;;;4.23;;
11893;SDS011;6006;49.696;8.662;2023-04-29T04:52:10;4.07;;;3.70;;
11893;SDS011;6006;49.696;8.662;2023-04-29T04:54:37;5.83;;;4.30;;
11893;SDS011;6006;49.696;8.662;2023-04-29T04:57:04;4.83;;;3.73;;
11893;SDS011;6006;49.696;8.662;2023-04-29T04:59:32;3.90;;;3.60;;
11893;SDS011;6006;49.696;8.662;2023-04-29T05:01:59;5.20;;;3.97;;
11893;SDS011;6006;49.696;8.662;2023-04-29T05:04:25;4.40;;;4.10;;
11893;SDS011;6006;49.696;8.662;2023-04-29T05:06:54;6.00;;;5.40;;
11893;SDS011;6006;49.696;8.662;2023-04-29T05:09:20;5.37;;;4.27;;
11893;SDS011;6006;49.696;8.662;2023-04-29T05:11:47;4.53;;;4.00;;
11893;SDS011;6006;49.696;8.662;2023-04-29T05:14:14;6.53;;;4.83;;
11893;SDS011;6006;49.696;8.662;2023-04-29T05:16:42;4.37;;;3.97;;
11893;SDS011;6006;49.696;8.662;2023-04-29T05:19:10;5.23;;;4.73;;
11893;SDS011;6006;49.696;8.662;2023-04-29T05:21:37;6.23;;;4.13;;
11893;SDS011;6006;49.696;8.662;2023-04-29T05:24:05;5.43;;;4.43;;
11893;SDS011;6006;49.696;8.662;2023-04-29T05:26:32;4.60;;;4.20;;
11893;SDS011;6006;49.696;8.662;2023-04-29T05:28:59;6.80;;;4.67;;
11893;SDS011;6006;49.696;8.662;2023-04-29T05:31:26;5.53;;;4.50;;
11893;SDS011;6006;49.696;8.662;2023-04-29T05:33:53;4.43;;;4.03;;
11893;SDS011;6006;49.696;8.662;2023-04-29T05:36:19;6.53;;;4.43;;
11893;SDS011;6006;49.696;8.662;2023-04-29T05:38:46;9.27;;;4.80;;
11893;SDS011;6006;49.696;8.662;2023-04-29T05:41:14;12.90;;;5.87;;
11893;SDS011;6006;49.696;8.662;2023-04-29T05:43:41;5.63;;;4.70;;
11893;SDS011;6006;49.696;8.662;2023-04-29T05:46:08;5.20;;;4.70;;
11893;SDS011;6006;49.696;8.662;2023-04-29T05:48:35;4.50;;;4.10;;
11893;SDS011;6006;49.696;8.662;2023-04-29T05:51:02;4.63;;;4.23;;
11893;SDS011;6006;49.696;8.662;2023-04-29T05:53:28;5.00;;;4.50;;
11893;SDS011;6006;49.696;8.662;2023-04-29T05:55:57;4.50;;;4.10;;
11893;SDS011;6006;49.696;8.662;2023-04-29T05:58:25;3.77;;;3.47;;
11893;SDS011;6006;49.696;8.662;2023-04-29T06:00:52;4.17;;;3.77;;
11893;SDS011;6006;49.696;8.662;2023-04-29T06:03:18;4.07;;;3.70;;
11893;SDS011;6006;49.696;8.662;2023-04-29T06:05:45;3.07;;;2.87;;
11893;SDS011;6006;49.696;8.662;2023-04-29T06:08:12;3.77;;;3.47;;
11893;SDS011;6006;49.696;8.662;2023-04-29T06:10:39;4.97;;;3.87;;
11893;SDS011;6006;49.696;8.662;2023-04-29T06:13:06;4.13;;;3.83;;
11893;SDS011;6006;49.696;8.662;2023-04-29T06:15:34;4.43;;;4.03;;
11893;SDS011;6006;49.696;8.662;2023-04-29T06:18:01;3.87;;;3.47;;
11893;SDS011;6006;49.696;8.662;2023-04-29T06:20:27;3.73;;;3.17;;
11893;SDS011;6006;49.696;8.662;2023-04-29T06:22:54;5.33;;;3.73;;
11893;SDS011;6006;49.696;8.662;2023-04-29T06:25:21;4.07;;;3.50;;
11893;SDS011;6006;49.696;8.662;2023-04-29T06:27:48;3.80;;;3.50;;
11893;SDS011;6006;49.696;8.662;2023-04-29T06:30:15;3.37;;;3.07;;
11893;SDS011;6006;49.696;8.662;2023-04-29T06:32:43;4.77;;;3.60;;
11893;SDS011;6006;49.696;8.662;2023-04-29T06:35:10;3.77;;;3.43;;
11893;SDS011;6006;49.696;8.662;2023-04-29T06:37:37;3.40;;;3.10;;
11893;SDS011;6006;49.696;8.662;2023-04-29T06:40:04;6.33;;;5.63;;
11893;SDS011;6006;49.696;8.662;2023-04-29T06:42:31;7.77;;;6.30;;
11893;SDS011;6006;49.696;8.662;2023-04-29T06:44:58;11.60;;;7.33;;
11893;SDS011;6006;49.696;8.662;2023-04-29T06:47:25;8.13;;;6.43;;
11893;SDS011;6006;49.696;8.662;2023-04-29T06:49:53;8.57;;;7.10;;
11893;SDS011;6006;49.696;8.662;2023-04-29T06:52:20;10.60;;;8.73;;
11893;SDS011;6006;49.696;8.662;2023-04-29T06:54:47;13.07;;;9.13;;
11893;SDS011;6006;49.696;8.662;2023-04-29T06:57:14;10.17;;;8.43;;
11893;SDS011;6006;49.696;8.662;2023-04-29T06:59:41;12.33;;;8.57;;
11893;SDS011;6006;49.696;8.662;2023-04-29T07:02:08;15.43;;;8.93;;
11893;SDS011;6006;49.696;8.662;2023-04-29T07:04:35;11.20;;;8.30;;
11893;SDS011;6006;49.696;8.662;2023-04-29T07:07:03;11.40;;;8.80;;
11893;SDS011;6006;49.696;8.662;2023-04-29T07:09:30;11.60;;;8.73;;
11893;SDS011;6006;49.696;8.662;2023-04-29T07:11:57;13.50;;;9.13;;
11893;SDS011;6006;49.696;8.662;2023-04-29T07:14:25;9.57;;;8.47;;
11893;SDS011;6006;49.696;8.662;2023-04-29T07:16:52;9.07;;;7.50;;
11893;SDS011;6006;49.696;8.662;2023-04-29T07:19:19;10.60;;;9.40;;
11893;SDS011;6006;49.696;8.662;2023-04-29T07:21:46;13.47;;;9.03;;
11893;SDS011;6006;49.696;8.662;2023-04-29T07:24:14;11.37;;;8.80;;
11893;SDS011;6006;49.696;8.662;2023-04-29T07:26:41;10.40;;;9.30;;
11893;SDS011;6006;49.696;8.662;2023-04-29T07:29:09;10.83;;;8.50;;
11893;SDS011;6006;49.696;8.662;2023-04-29T07:31:36;11.73;;;8.43;;
11893;SDS011;6006;49.696;8.662;2023-04-29T07:34:03;11.17;;;8.53;;
11893;SDS011;6006;49.696;8.662;2023-04-29T07:36:30;10.67;;;7.90;;
11893;SDS011;6006;49.696;8.662;2023-04-29T07:38:57;9.17;;;7.63;;
11893;SDS011;6006;49.696;8.662;2023-04-29T07:41:25;9.93;;;7.63;;
11893;SDS011;6006;49.696;8.662;2023-04-29T07:43:52;9.80;;;7.07;;
11893;SDS011;6006;49.696;8.662;2023-04-29T07:46:19;9.70;;;6.93;;
11893;SDS011;6006;49.696;8.662;2023-04-29T07:48:46;7.03;;;5.83;;
11893;SDS011;6006;49.696;8.662;2023-04-29T07:51:13;5.20;;;4.70;;
11893;SDS011;6006;49.696;8.662;2023-04-29T07:53:40;6.50;;;4.73;;
11893;SDS011;6006;49.696;8.662;2023-04-29T07:56:07;7.23;;;5.37;;
11893;SDS011;6006;49.696;8.662;2023-04-29T07:58:36;5.47;;;4.40;;
11893;SDS011;6006;49.696;8.662;2023-04-29T08:01:06;5.30;;;4.33;;
11893;SDS011;6006;49.696;8.662;2023-04-29T08:03:34;5.60;;;4.97;;
11893;SDS011;6006;49.696;8.662;2023-04-29T08:06:01;4.77;;;4.20;;
11893;SDS011;6006;49.696;8.662;2023-04-29T08:08:28;7.00;;;4.83;;
11893;SDS011;6006;49.696;8.662;2023-04-29T08:10:56;6.00;;;4.67;;
11893;SDS011;6006;49.696;8.662;2023-04-29T08:13:23;5.80;;;4.67;;
11893;SDS011;6006;49.696;8.662;2023-04-29T08:15:51;5.00;;;4.50;;
11893;SDS011;6006;49.696;8.662;2023-04-29T08:18:18;4.77;;;4.00;;
11893;SDS011;6006;49.696;8.662;2023-04-29T08:20:46;4.33;;;3.90;;
11893;SDS011;6006;49.696;8.662;2023-04-29T08:23:14;5.57;;;4.03;;
11893;SDS011;6006;49.696;8.662;2023-04-29T08:25:41;7.43;;;4.33;;
11893;SDS011;6006;49.696;8.662;2023-04-29T08:28:09;4.90;;;4.20;;
11893;SDS011;6006;49.696;8.662;2023-04-29T08:30:36;4.10;;;3.70;;
11893;SDS011;6006;49.696;8.662;2023-04-29T08:33:06;4.40;;;4.00;;
11893;SDS011;6006;49.696;8.662;2023-04-29T08:35:33;5.77;;;4.33;;
11893;SDS011;6006;49.696;8.662;2023-04-29T08:38:02;4.20;;;3.80;;
11893;SDS011;6006;49.696;8.662;2023-04-29T08:40:30;3.83;;;3.27;;
11893;SDS011;6006;49.696;8.662;2023-04-29T08:42:59;4.93;;;4.20;;
11893;SDS011;6006;49.696;8.662;2023-04-29T08:45:26;4.40;;;3.87;;
11893;SDS011;6006;49.696;8.662;2023-04-29T08:47:54;6.20;;;4.37;;
11893;SDS011;6006;49.696;8.662;2023-04-29T08:50:23;6.17;;;4.20;;
11893;SDS011;6006;49.696;8.662;2023-04-29T08:52:51;4.77;;;4.27;;
11893;SDS011;6006;49.696;8.662;2023-04-29T08:55:18;5.70;;;4.20;;
11893;SDS011;6006;49.696;8.662;2023-04-29T08:57:44;5.33;;;4.37;;
11893;SDS011;6006;49.696;8.662;2023-04-29T09:00:14;4.27;;;3.87;;
11893;SDS011;6006;49.696;8.662;2023-04-29T09:02:44;4.90;;;3.87;;
11893;SDS011;6006;49.696;8.662;2023-04-29T09:05:12;3.87;;;3.50;;
11893;SDS011;6006;49.696;8.662;2023-04-29T09:07:41;4.35;;;3.83;;
11893;SDS011;6006;49.696;8.662;2023-04-29T09:10:09;4.70;;;4.22;;
11893;SDS011;6006;49.696;8.662;2023-04-29T09:12:36;5.63;;;4.33;;
11893;SDS011;6006;49.696;8.662;2023-04-29T09:15:03;4.30;;;3.90;;
11893;SDS011;6006;49.696;8.662;2023-04-29T09:17:37;7.03;;;4.60;;
11893;SDS011;6006;49.696;8.662;2023-04-29T09:22:54;3.67;;;3.38;;
11893;SDS011;6006;49.696;8.662;2023-04-29T09:25:22;4.40;;;3.75;;
11893;SDS011;6006;49.696;8.662;2023-04-29T09:27:51;4.73;;;3.53;;
11893;SDS011;6006;49.696;8.662;2023-04-29T09:30:18;3.93;;;3.53;;
11893;SDS011;6006;49.696;8.662;2023-04-29T09:32:45;3.70;;;3.40;;
11893;SDS011;6006;49.696;8.662;2023-04-29T09:35:28;5.43;;;3.57;;
11893;SDS011;6006;49.696;8.662;2023-04-29T09:38:07;3.90;;;3.50;;
11893;SDS011;6006;49.696;8.662;2023-04-29T09:40:35;4.70;;;3.93;;
11893;SDS011;6006;49.696;8.662;2023-04-29T09:43:02;6.23;;;4.47;;
11893;SDS011;6006;49.696;8.662;2023-04-29T09:45:32;5.87;;;4.23;;
11893;SDS011;6006;49.696;8.662;2023-04-29T09:48:01;5.17;;;4.20;;
11893;SDS011;6006;49.696;8.662;2023-04-29T09:50:28;5.23;;;4.13;;
11893;SDS011;6006;49.696;8.662;2023-04-29T09:52:56;4.60;;;4.13;;
11893;SDS011;6006;49.696;8.662;2023-04-29T09:55:25;3.87;;;3.47;;
11893;SDS011;6006;49.696;8.662;2023-04-29T09:57:52;4.13;;;3.43;;
11893;SDS011;6006;49.696;8.662;2023-04-29T10:00:19;4.57;;;3.60;;
11893;SDS011;6006;49.696;8.662;2023-04-29T10:02:46;5.17;;;4.07;;
11893;SDS011;6006;49.696;8.662;2023-04-29T10:05:15;6.70;;;4.30;;
11893;SDS011;6006;49.696;8.662;2023-04-29T10:07:42;4.43;;;3.43;;
11893;SDS011;6006;49.696;8.662;2023-04-29T10:10:11;4.40;;;4.00;;
11893;SDS011;6006;49.696;8.662;2023-04-29T10:12:40;4.87;;;4.27;;
11893;SDS011;6006;49.696;8.662;2023-04-29T10:15:17;5.20;;;4.40;;
11893;SDS011;6006;49.696;8.662;2023-04-29T10:17:48;5.23;;;4.43;;
11893;SDS011;6006;49.696;8.662;2023-04-29T10:20:21;4.97;;;4.10;;
11893;SDS011;6006;49.696;8.662;2023-04-29T10:22:49;4.70;;;4.00;;
11893;SDS011;6006;49.696;8.662;2023-04-29T10:25:17;5.33;;;4.40;;
11893;SDS011;6006;49.696;8.662;2023-04-29T10:27:46;4.90;;;4.23;;
11893;SDS011;6006;49.696;8.662;2023-04-29T10:30:16;5.10;;;3.90;;
11893;SDS011;6006;49.696;8.662;2023-04-29T10:32:44;4.30;;;3.83;;
11893;SDS011;6006;49.696;8.662;2023-04-29T10:35:12;4.60;;;4.00;;
11893;SDS011;6006;49.696;8.662;2023-04-29T10:37:39;4.50;;;3.95;;
11893;SDS011;6006;49.696;8.662;2023-04-29T10:40:09;5.17;;;4.33;;
11893;SDS011;6006;49.696;8.662;2023-04-29T10:42:42;4.40;;;3.93;;
11893;SDS011;6006;49.696;8.662;2023-04-29T10:48:12;5.20;;;4.03;;
11893;SDS011;6006;49.696;8.662;2023-04-29T10:53:28;4.10;;;3.77;;
11893;SDS011;6006;49.696;8.662;2023-04-29T10:55:56;3.97;;;3.57;;
11893;SDS011;6006;49.696;8.662;2023-04-29T10:58:34;4.13;;;3.73;;
11893;SDS011;6006;49.696;8.662;2023-04-29T11:01:13;3.87;;;3.40;;
11893;SDS011;6006;49.696;8.662;2023-04-29T11:03:44;4.17;;;3.77;;
11893;SDS011;6006;49.696;8.662;2023-04-29T11:06:13;5.28;;;4.60;;
11893;SDS011;6006;49.696;8.662;2023-04-29T11:08:40;5.27;;;4.10;;
11893;SDS011;6006;49.696;8.662;2023-04-29T11:11:07;5.47;;;4.60;;
11893;SDS011;6006;49.696;8.662;2023-04-29T11:13:36;7.80;;;4.40;;
11893;SDS011;6006;49.696;8.662;2023-04-29T11:16:04;4.87;;;3.87;;
11893;SDS011;6006;49.696;8.662;2023-04-29T11:18:33;7.40;;;4.25;;
11893;SDS011;6006;49.696;8.662;2023-04-29T11:21:13;4.43;;;3.72;;
11893;SDS011;6006;49.696;8.662;2023-04-29T11:23:40;4.53;;;3.67;;
11893;SDS011;6006;49.696;8.662;2023-04-29T11:26:09;3.50;;;3.20;;
11893;SDS011;6006;49.696;8.662;2023-04-29T11:28:36;3.80;;;3.35;;
11893;SDS011;6006;49.696;8.662;2023-04-29T11:31:04;4.82;;;3.75;;
11893;SDS011;6006;49.696;8.662;2023-04-29T11:33:34;4.00;;;3.10;;
11893;SDS011;6006;49.696;8.662;2023-04-29T11:36:01;4.07;;;3.63;;
11893;SDS011;6006;49.696;8.662;2023-04-29T11:38:29;5.10;;;3.97;;
11893;SDS011;6006;49.696;8.662;2023-04-29T11:40:56;4.20;;;3.80;;
11893;SDS011;6006;49.696;8.662;2023-04-29T11:43:24;4.27;;;3.87;;
11893;SDS011;6006;49.696;8.662;2023-04-29T11:45:52;3.90;;;3.57;;
11893;SDS011;6006;49.696;8.662;2023-04-29T11:48:19;3.50;;;3.20;;
11893;SDS011;6006;49.696;8.662;2023-04-29T11:50:48;3.60;;;3.30;;
11893;SDS011;6006;49.696;8.662;2023-04-29T11:53:18;3.40;;;3.10;;
11893;SDS011;6006;49.696;8.662;2023-04-29T11:55:45;4.63;;;2.83;;
11893;SDS011;6006;49.696;8.662;2023-04-29T11:58:12;4.10;;;2.97;;
11893;SDS011;6006;49.696;8.662;2023-04-29T12:00:40;2.75;;;2.55;;
11893;SDS011;6006;49.696;8.662;2023-04-29T12:03:07;3.40;;;2.90;;
11893;SDS011;6006;49.696;8.662;2023-04-29T12:05:38;3.03;;;2.73;;
11893;SDS011;6006;49.696;8.662;2023-04-29T12:08:07;3.17;;;2.88;;
11893;SDS011;6006;49.696;8.662;2023-04-29T12:10:34;3.28;;;2.97;;
11893;SDS011;6006;49.696;8.662;2023-04-29T12:13:01;3.67;;;3.08;;
11893;SDS011;6006;49.696;8.662;2023-04-29T12:15:29;3.08;;;2.78;;
11893;SDS011;6006;49.696;8.662;2023-04-29T12:17:56;2.83;;;2.63;;
11893;SDS011;6006;49.696;8.662;2023-04-29T12:20:23;3.55;;;2.97;;
11893;SDS011;6006;49.696;8.662;2023-04-29T12:22:50;3.30;;;3.00;;
11893;SDS011;6006;49.696;8.662;2023-04-29T12:25:23;3.80;;;2.80;;
11893;SDS011;6006;49.696;8.662;2023-04-29T12:27:50;4.67;;;3.37;;
11893;SDS011;6006;49.696;8.662;2023-04-29T12:30:17;3.70;;;3.30;;
11893;SDS011;6006;49.696;8.662;2023-04-29T12:32:46;4.10;;;3.33;;
11893;SDS011;6006;49.696;8.662;2023-04-29T12:35:13;3.10;;;2.80;;
11893;SDS011;6006;49.696;8.662;2023-04-29T12:37:41;4.37;;;2.93;;
11893;SDS011;6006;49.696;8.662;2023-04-29T12:40:12;5.00;;;3.03;;
11893;SDS011;6006;49.696;8.662;2023-04-29T12:42:41;3.93;;;3.40;;
11893;SDS011;6006;49.696;8.662;2023-04-29T12:45:17;3.40;;;3.10;;
11893;SDS011;6006;49.696;8.662;2023-04-29T12:47:51;3.40;;;3.07;;
11893;SDS011;6006;49.696;8.662;2023-04-29T12:50:19;3.83;;;2.93;;
11893;SDS011;6006;49.696;8.662;2023-04-29T12:52:45;3.30;;;3.00;;
11893;SDS011;6006;49.696;8.662;2023-04-29T12:55:13;3.13;;;2.83;;
11893;SDS011;6006;49.696;8.662;2023-04-29T12:57:41;3.15;;;2.90;;
11893;SDS011;6006;49.696;8.662;2023-04-29T13:00:08;4.68;;;3.50;;
11893;SDS011;6006;49.696;8.662;2023-04-29T13:02:36;3.30;;;2.92;;
11893;SDS011;6006;49.696;8.662;2023-04-29T13:05:03;3.88;;;2.97;;
11893;SDS011;6006;49.696;8.662;2023-04-29T13:07:30;3.50;;;3.20;;
11893;SDS011;6006;49.696;8.662;2023-04-29T13:09:57;3.40;;;3.10;;
11893;SDS011;6006;49.696;8.662;2023-04-29T13:12:24;2.88;;;2.67;;
11893;SDS011;6006;49.696;8.662;2023-04-29T13:14:52;4.90;;;2.90;;
11893;SDS011;6006;49.696;8.662;2023-04-29T13:17:20;2.70;;;2.45;;
11893;SDS011;6006;49.696;8.662;2023-04-29T13:19:47;2.95;;;2.70;;
11893;SDS011;6006;49.696;8.662;2023-04-29T13:22:14;3.40;;;2.60;;
11893;SDS011;6006;49.696;8.662;2023-04-29T13:24:41;3.63;;;2.50;;
11893;SDS011;6006;49.696;8.662;2023-04-29T13:27:08;2.55;;;2.35;;
11893;SDS011;6006;49.696;8.662;2023-04-29T13:29:35;2.25;;;2.08;;
11893;SDS011;6006;49.696;8.662;2023-04-29T13:32:03;2.20;;;2.00;;
11893;SDS011;6006;49.696;8.662;2023-04-29T13:34:30;3.40;;;2.45;;
11893;SDS011;6006;49.696;8.662;2023-04-29T13:36:57;2.00;;;1.90;;
11893;SDS011;6006;49.696;8.662;2023-04-29T13:39:24;2.90;;;2.67;;
11893;SDS011;6006;49.696;8.662;2023-04-29T13:41:50;4.35;;;2.70;;
11893;SDS011;6006;49.696;8.662;2023-04-29T13:44:17;3.13;;;2.83;;
11893;SDS011;6006;49.696;8.662;2023-04-29T13:46:44;2.75;;;2.50;;
11893;SDS011;6006;49.696;8.662;2023-04-29T13:49:13;6.88;;;2.58;;
11893;SDS011;6006;49.696;8.662;2023-04-29T13:51:39;2.70;;;2.50;;
11893;SDS011;6006;49.696;8.662;2023-04-29T13:54:06;2.92;;;2.67;;
11893;SDS011;6006;49.696;8.662;2023-04-29T13:56:33;3.30;;;3.00;;
11893;SDS011;6006;49.696;8.662;2023-04-29T13:59:00;3.17;;;2.60;;
11893;SDS011;6006;49.696;8.662;2023-04-29T14:01:27;3.13;;;2.83;;
11893;SDS011;6006;49.696;8.662;2023-04-29T14:03:54;3.30;;;3.00;;
11893;SDS011;6006;49.696;8.662;2023-04-29T14:06:22;3.13;;;2.83;;
11893;SDS011;6006;49.696;8.662;2023-04-29T14:08:48;2.70;;;2.50;;
11893;SDS011;6006;49.696;8.662;2023-04-29T14:11:15;2.90;;;2.60;;
11893;SDS011;6006;49.696;8.662;2023-04-29T14:13:43;2.80;;;2.60;;
11893;SDS011;6006;49.696;8.662;2023-04-29T14:16:10;3.25;;;2.80;;
11893;SDS011;6006;49.696;8.662;2023-04-29T14:18:37;3.30;;;2.85;;
11893;SDS011;6006;49.696;8.662;2023-04-29T14:21:04;2.95;;;2.50;;
11893;SDS011;6006;49.696;8.662;2023-04-29T14:23:32;2.90;;;2.70;;
11893;SDS011;6006;49.696;8.662;2023-04-29T14:25:59;3.10;;;2.75;;
11893;SDS011;6006;49.696;8.662;2023-04-29T14:28:25;3.00;;;2.70;;
11893;SDS011;6006;49.696;8.662;2023-04-29T14:30:52;3.00;;;2.70;;
11893;SDS011;6006;49.696;8.662;2023-04-29T14:33:19;2.53;;;2.33;;
11893;SDS011;6006;49.696;8.662;2023-04-29T14:35:46;3.20;;;2.90;;
11893;SDS011;6006;49.696;8.662;2023-04-29T14:38:13;4.05;;;3.65;;
11893;SDS011;6006;49.696;8.662;2023-04-29T14:40:41;3.63;;;3.30;;
11893;SDS011;6006;49.696;8.662;2023-04-29T14:43:08;2.80;;;2.60;;
11893;SDS011;6006;49.696;8.662;2023-04-29T14:45:36;3.20;;;2.87;;
11893;SDS011;6006;49.696;8.662;2023-04-29T14:48:03;2.90;;;2.70;;
11893;SDS011;6006;49.696;8.662;2023-04-29T14:50:29;3.20;;;2.90;;
11893;SDS011;6006;49.696;8.662;2023-04-29T14:52:56;3.47;;;3.05;;
11893;SDS011;6006;49.696;8.662;2023-04-29T14:55:24;2.88;;;2.60;;
11893;SDS011;6006;49.696;8.662;2023-04-29T14:57:52;3.03;;;2.72;;
11893;SDS011;6006;49.696;8.662;2023-04-29T15:00:19;2.63;;;2.38;;
11893;SDS011;6006;49.696;8.662;2023-04-29T15:02:46;3.53;;;2.67;;
11893;SDS011;6006;49.696;8.662;2023-04-29T15:05:14;2.70;;;2.50;;
11893;SDS011;6006;49.696;8.662;2023-04-29T15:07:42;2.35;;;2.13;;
11893;SDS011;6006;49.696;8.662;2023-04-29T15:10:08;2.67;;;2.30;;
11893;SDS011;6006;49.696;8.662;2023-04-29T15:12:36;2.97;;;2.78;;